sensor_id;sensor_type;location;lat;lon;timestamp;P1;durP1;ratioP1;P2;durP2;ratioP2
2396;SDS011;1209;48.410;9.054;2022-09-03T00:00:54;1.70;;;1.60;;
2396;SDS011;1209;48.410;9.054;2022-09-03T00:03:33;1.93;;;1.83;;
2396;SDS011;1209;48.410;9.054;2022-09-03T00:06:10;1.83;;;1.73;;
2396;SDS011;1209;48.410;9.054;2022-09-03T00:08:45;2.03;;;1.93;;
2396;SDS011;1209;48.410;9.054;2022-09-03T00:13:43;2.53;;;2.33;;
2396;SDS011;1209;48.410;9.054;2022-09-03T00:16:12;1.90;;;1.80;;
2396;SDS011;1209;48.410;9.054;2022-09-03T00:18:44;2.10;;;1.97;;
2396;SDS011;1209;48.410;9.054;2022-09-03T00:21:35;1.90;;;1.63;;
2396;SDS011;1209;48.410;9.054;2022-09-03T00:24:09;1.93;;;1.83;;
2396;SDS011;1209;48.410;9.054;2022-09-03T00:26:38;1.97;;;1.87;;
2396;SDS011;1209;48.410;9.054;2022-09-03T00:29:11;2.07;;;1.87;;
2396;SDS011;1209;48.410;9.054;2022-09-03T00:31:45;2.10;;;2.00;;
2396;SDS011;1209;48.410;9.054;2022-09-03T00:34:19;2.37;;;1.93;;
2396;SDS011;1209;48.410;9.054;2022-09-03T00:36:50;2.60;;;2.30;;
2396;SDS011;1209;48.410;9.054;2022-09-03T00:39:17;2.23;;;2.00;;
2396;SDS011;1209;48.410;9.054;2022-09-03T00:52:13;1.83;;;1.73;;
2396;SDS011;1209;48.410;9.054;2022-09-03T00:54:54;3.83;;;1.80;;
2396;SDS011;1209;48.410;9.054;2022-09-03T01:00:07;2.07;;;1.97;;
2396;SDS011;1209;48.410;9.054;2022-09-03T01:02:40;2.40;;;2.20;;
2396;SDS011;1209;48.410;9.054;2022-09-03T01:13:20;1.83;;;1.73;;
2396;SDS011;1209;48.410;9.054;2022-09-03T01:27:20;2.37;;;2.27;;
2396;SDS011;1209;48.410;9.054;2022-09-03T01:30:08;2.30;;;2.10;;
2396;SDS011;1209;48.410;9.054;2022-09-03T01:35:52;2.27;;;2.07;;
2396;SDS011;1209;48.410;9.054;2022-09-03T01:41:17;1.93;;;1.83;;
2396;SDS011;1209;48.410;9.054;2022-09-03T01:53:03;3.43;;;2.50;;
2396;SDS011;1209;48.410;9.054;2022-09-03T01:55:43;2.77;;;2.47;;
2396;SDS011;1209;48.410;9.054;2022-09-03T02:00:52;3.30;;;2.67;;
2396;SDS011;1209;48.410;9.054;2022-09-03T02:03:21;1.80;;;1.70;;
2396;SDS011;1209;48.410;9.054;2022-09-03T02:05:49;2.10;;;2.00;;
2396;SDS011;1209;48.410;9.054;2022-09-03T02:08:17;3.20;;;2.10;;
2396;SDS011;1209;48.410;9.054;2022-09-03T02:10:50;2.87;;;2.27;;
2396;SDS011;1209;48.410;9.054;2022-09-03T02:13:19;1.73;;;1.63;;
2396;SDS011;1209;48.410;9.054;2022-09-03T02:15:46;3.93;;;2.43;;
2396;SDS011;1209;48.410;9.054;2022-09-03T02:18:18;2.20;;;2.00;;
2396;SDS011;1209;48.410;9.054;2022-09-03T02:20:46;2.40;;;2.17;;
2396;SDS011;1209;48.410;9.054;2022-09-03T02:23:13;2.47;;;2.27;;
2396;SDS011;1209;48.410;9.054;2022-09-03T02:26:01;2.60;;;2.40;;
2396;SDS011;1209;48.410;9.054;2022-09-03T02:28:29;3.13;;;2.13;;
2396;SDS011;1209;48.410;9.054;2022-09-03T02:30:56;2.23;;;2.13;;
2396;SDS011;1209;48.410;9.054;2022-09-03T02:33:22;2.10;;;2.00;;
2396;SDS011;1209;48.410;9.054;2022-09-03T02:35:48;2.50;;;2.30;;
2396;SDS011;1209;48.410;9.054;2022-09-03T02:38:15;2.30;;;2.10;;
2396;SDS011;1209;48.410;9.054;2022-09-03T02:40:42;3.20;;;2.27;;
2396;SDS011;1209;48.410;9.054;2022-09-03T02:43:10;2.70;;;2.20;;
2396;SDS011;1209;48.410;9.054;2022-09-03T02:45:42;4.03;;;2.17;;
2396;SDS011;1209;48.410;9.054;2022-09-03T02:48:11;2.10;;;2.00;;
2396;SDS011;1209;48.410;9.054;2022-09-03T02:50:40;3.00;;;2.70;;
2396;SDS011;1209;48.410;9.054;2022-09-03T02:53:06;7.60;;;2.37;;
2396;SDS011;1209;48.410;9.054;2022-09-03T02:55:32;2.53;;;2.40;;
2396;SDS011;1209;48.410;9.054;2022-09-03T02:57:58;2.57;;;2.37;;
2396;SDS011;1209;48.410;9.054;2022-09-03T03:00:24;2.47;;;2.27;;
2396;SDS011;1209;48.410;9.054;2022-09-03T03:02:50;2.70;;;2.50;;
2396;SDS011;1209;48.410;9.054;2022-09-03T03:05:17;2.20;;;2.00;;
2396;SDS011;1209;48.410;9.054;2022-09-03T03:08:00;3.90;;;3.10;;
2396;SDS011;1209;48.410;9.054;2022-09-03T03:10:26;2.23;;;2.03;;
2396;SDS011;1209;48.410;9.054;2022-09-03T03:12:51;2.67;;;2.30;;
2396;SDS011;1209;48.410;9.054;2022-09-03T03:15:16;2.80;;;2.60;;
2396;SDS011;1209;48.410;9.054;2022-09-03T03:17:41;3.53;;;2.80;;
2396;SDS011;1209;48.410;9.054;2022-09-03T03:20:07;2.73;;;2.50;;
2396;SDS011;1209;48.410;9.054;2022-09-03T03:22:33;2.00;;;1.90;;
2396;SDS011;1209;48.410;9.054;2022-09-03T03:24:58;2.47;;;2.27;;
2396;SDS011;1209;48.410;9.054;2022-09-03T03:27:23;2.40;;;2.30;;
2396;SDS011;1209;48.410;9.054;2022-09-03T03:29:48;3.27;;;2.97;;
2396;SDS011;1209;48.410;9.054;2022-09-03T03:32:14;4.00;;;2.30;;
2396;SDS011;1209;48.410;9.054;2022-09-03T03:34:40;2.70;;;2.50;;
2396;SDS011;1209;48.410;9.054;2022-09-03T03:37:05;3.40;;;2.70;;
2396;SDS011;1209;48.410;9.054;2022-09-03T03:39:30;2.80;;;2.60;;
2396;SDS011;1209;48.410;9.054;2022-09-03T03:41:56;4.70;;;3.00;;
2396;SDS011;1209;48.410;9.054;2022-09-03T03:44:21;2.47;;;2.30;;
2396;SDS011;1209;48.410;9.054;2022-09-03T03:46:47;3.50;;;3.20;;
2396;SDS011;1209;48.410;9.054;2022-09-03T03:49:12;2.43;;;2.30;;
2396;SDS011;1209;48.410;9.054;2022-09-03T03:51:37;3.10;;;2.83;;
2396;SDS011;1209;48.410;9.054;2022-09-03T03:54:03;2.57;;;2.37;;
2396;SDS011;1209;48.410;9.054;2022-09-03T03:56:29;4.80;;;2.70;;
2396;SDS011;1209;48.410;9.054;2022-09-03T03:58:54;2.83;;;2.63;;
2396;SDS011;1209;48.410;9.054;2022-09-03T04:01:21;3.70;;;2.70;;
2396;SDS011;1209;48.410;9.054;2022-09-03T04:03:47;2.87;;;2.67;;
2396;SDS011;1209;48.410;9.054;2022-09-03T04:06:14;5.43;;;2.87;;
2396;SDS011;1209;48.410;9.054;2022-09-03T04:08:42;3.10;;;2.80;;
2396;SDS011;1209;48.410;9.054;2022-09-03T04:11:10;2.70;;;2.50;;
2396;SDS011;1209;48.410;9.054;2022-09-03T04:13:38;3.33;;;3.03;;
2396;SDS011;1209;48.410;9.054;2022-09-03T04:16:09;2.63;;;2.33;;
2396;SDS011;1209;48.410;9.054;2022-09-03T04:18:34;2.10;;;2.00;;
2396;SDS011;1209;48.410;9.054;2022-09-03T04:21:01;4.80;;;3.70;;
2396;SDS011;1209;48.410;9.054;2022-09-03T04:23:28;2.87;;;2.67;;
2396;SDS011;1209;48.410;9.054;2022-09-03T04:25:57;2.33;;;2.23;;
2396;SDS011;1209;48.410;9.054;2022-09-03T04:28:23;2.90;;;2.70;;
2396;SDS011;1209;48.410;9.054;2022-09-03T04:30:48;3.20;;;3.00;;
2396;SDS011;1209;48.410;9.054;2022-09-03T04:33:13;3.23;;;2.93;;
2396;SDS011;1209;48.410;9.054;2022-09-03T04:35:39;4.20;;;3.23;;
2396;SDS011;1209;48.410;9.054;2022-09-03T04:38:05;2.70;;;2.50;;
2396;SDS011;1209;48.410;9.054;2022-09-03T04:40:30;2.43;;;2.23;;
2396;SDS011;1209;48.410;9.054;2022-09-03T04:42:56;2.17;;;2.00;;
2396;SDS011;1209;48.410;9.054;2022-09-03T04:45:23;3.13;;;2.90;;
2396;SDS011;1209;48.410;9.054;2022-09-03T04:47:58;6.50;;;3.40;;
2396;SDS011;1209;48.410;9.054;2022-09-03T04:50:28;3.03;;;2.27;;
2396;SDS011;1209;48.410;9.054;2022-09-03T04:52:59;3.20;;;2.90;;
2396;SDS011;1209;48.410;9.054;2022-09-03T04:55:26;3.30;;;3.00;;
2396;SDS011;1209;48.410;9.054;2022-09-03T04:57:52;3.47;;;2.80;;
2396;SDS011;1209;48.410;9.054;2022-09-03T05:00:18;2.80;;;2.60;;
2396;SDS011;1209;48.410;9.054;2022-09-03T05:02:44;4.50;;;2.63;;
2396;SDS011;1209;48.410;9.054;2022-09-03T05:05:11;3.13;;;2.87;;
2396;SDS011;1209;48.410;9.054;2022-09-03T05:07:37;3.20;;;3.00;;
2396;SDS011;1209;48.410;9.054;2022-09-03T05:10:08;4.50;;;2.90;;
2396;SDS011;1209;48.410;9.054;2022-09-03T05:12:44;2.90;;;2.70;;
2396;SDS011;1209;48.410;9.054;2022-09-03T05:15:11;2.60;;;2.40;;
2396;SDS011;1209;48.410;9.054;2022-09-03T05:17:37;2.70;;;2.50;;
2396;SDS011;1209;48.410;9.054;2022-09-03T05:20:03;3.27;;;2.97;;
2396;SDS011;1209;48.410;9.054;2022-09-03T05:22:32;3.10;;;2.90;;
2396;SDS011;1209;48.410;9.054;2022-09-03T05:24:58;2.50;;;2.30;;
2396;SDS011;1209;48.410;9.054;2022-09-03T05:27:24;3.10;;;2.80;;
2396;SDS011;1209;48.410;9.054;2022-09-03T05:29:49;2.90;;;2.70;;
2396;SDS011;1209;48.410;9.054;2022-09-03T05:32:14;3.17;;;2.97;;
2396;SDS011;1209;48.410;9.054;2022-09-03T05:34:41;3.13;;;2.90;;
2396;SDS011;1209;48.410;9.054;2022-09-03T05:37:09;4.40;;;3.40;;
2396;SDS011;1209;48.410;9.054;2022-09-03T05:39:36;3.60;;;3.30;;
2396;SDS011;1209;48.410;9.054;2022-09-03T05:42:01;2.87;;;2.63;;
2396;SDS011;1209;48.410;9.054;2022-09-03T05:44:27;3.30;;;3.00;;
2396;SDS011;1209;48.410;9.054;2022-09-03T05:46:52;3.20;;;2.97;;
2396;SDS011;1209;48.410;9.054;2022-09-03T05:49:18;3.60;;;2.80;;
2396;SDS011;1209;48.410;9.054;2022-09-03T05:51:43;3.30;;;3.00;;
2396;SDS011;1209;48.410;9.054;2022-09-03T05:54:09;3.30;;;3.00;;
2396;SDS011;1209;48.410;9.054;2022-09-03T05:56:35;6.00;;;3.30;;
2396;SDS011;1209;48.410;9.054;2022-09-03T05:59:04;2.80;;;2.60;;
2396;SDS011;1209;48.410;9.054;2022-09-03T06:01:32;3.73;;;3.37;;
2396;SDS011;1209;48.410;9.054;2022-09-03T06:04:32;4.53;;;3.10;;
2396;SDS011;1209;48.410;9.054;2022-09-03T06:06:50;3.20;;;2.90;;
2396;SDS011;1209;48.410;9.054;2022-09-03T06:09:16;3.13;;;2.93;;
2396;SDS011;1209;48.410;9.054;2022-09-03T06:11:44;4.13;;;3.33;;
2396;SDS011;1209;48.410;9.054;2022-09-03T06:14:11;3.60;;;3.30;;
2396;SDS011;1209;48.410;9.054;2022-09-03T06:16:41;4.70;;;3.43;;
2396;SDS011;1209;48.410;9.054;2022-09-03T06:19:13;3.70;;;3.40;;
2396;SDS011;1209;48.410;9.054;2022-09-03T06:21:39;3.97;;;3.10;;
2396;SDS011;1209;48.410;9.054;2022-09-03T06:24:10;3.23;;;2.93;;
2396;SDS011;1209;48.410;9.054;2022-09-03T06:26:37;4.33;;;3.30;;
2396;SDS011;1209;48.410;9.054;2022-09-03T06:29:03;2.73;;;2.53;;
2396;SDS011;1209;48.410;9.054;2022-09-03T06:31:28;3.17;;;2.97;;
2396;SDS011;1209;48.410;9.054;2022-09-03T06:33:54;2.93;;;2.73;;
2396;SDS011;1209;48.410;9.054;2022-09-03T06:36:21;3.47;;;3.20;;
2396;SDS011;1209;48.410;9.054;2022-09-03T06:38:50;2.87;;;2.67;;
2396;SDS011;1209;48.410;9.054;2022-09-03T06:41:17;3.20;;;3.00;;
2396;SDS011;1209;48.410;9.054;2022-09-03T06:43:50;2.97;;;2.77;;
2396;SDS011;1209;48.410;9.054;2022-09-03T06:46:18;3.13;;;2.83;;
2396;SDS011;1209;48.410;9.054;2022-09-03T06:48:46;3.20;;;3.00;;
2396;SDS011;1209;48.410;9.054;2022-09-03T06:51:13;3.83;;;3.43;;
2396;SDS011;1209;48.410;9.054;2022-09-03T06:53:44;3.60;;;3.30;;
2396;SDS011;1209;48.410;9.054;2022-09-03T06:56:12;4.00;;;3.13;;
2396;SDS011;1209;48.410;9.054;2022-09-03T06:58:40;4.00;;;3.30;;
2396;SDS011;1209;48.410;9.054;2022-09-03T07:01:11;4.83;;;3.50;;
2396;SDS011;1209;48.410;9.054;2022-09-03T07:03:40;5.17;;;3.67;;
2396;SDS011;1209;48.410;9.054;2022-09-03T07:06:07;3.00;;;2.80;;
2396;SDS011;1209;48.410;9.054;2022-09-03T07:08:38;3.20;;;2.93;;
2396;SDS011;1209;48.410;9.054;2022-09-03T07:11:04;3.27;;;2.97;;
2396;SDS011;1209;48.410;9.054;2022-09-03T07:13:37;3.20;;;2.90;;
2396;SDS011;1209;48.410;9.054;2022-09-03T07:16:08;2.77;;;2.53;;
2396;SDS011;1209;48.410;9.054;2022-09-03T07:18:44;3.80;;;2.77;;
2396;SDS011;1209;48.410;9.054;2022-09-03T07:21:10;3.50;;;3.13;;
2396;SDS011;1209;48.410;9.054;2022-09-03T07:23:38;3.00;;;2.60;;
2396;SDS011;1209;48.410;9.054;2022-09-03T07:26:06;4.13;;;2.90;;
2396;SDS011;1209;48.410;9.054;2022-09-03T07:28:37;3.73;;;2.77;;
2396;SDS011;1209;48.410;9.054;2022-09-03T07:31:07;3.33;;;3.03;;
2396;SDS011;1209;48.410;9.054;2022-09-03T07:33:36;2.70;;;2.47;;
2396;SDS011;1209;48.410;9.054;2022-09-03T07:36:07;3.30;;;3.00;;
2396;SDS011;1209;48.410;9.054;2022-09-03T07:38:34;2.83;;;2.63;;
2396;SDS011;1209;48.410;9.054;2022-09-03T07:41:01;2.67;;;2.47;;
2396;SDS011;1209;48.410;9.054;2022-09-03T07:43:32;4.20;;;2.87;;
2396;SDS011;1209;48.410;9.054;2022-09-03T07:46:04;3.80;;;2.87;;
2396;SDS011;1209;48.410;9.054;2022-09-03T07:48:30;3.03;;;2.70;;
2396;SDS011;1209;48.410;9.054;2022-09-03T07:50:57;3.33;;;3.13;;
2396;SDS011;1209;48.410;9.054;2022-09-03T07:53:25;4.47;;;3.73;;
2396;SDS011;1209;48.410;9.054;2022-09-03T07:55:52;4.00;;;3.60;;
2396;SDS011;1209;48.410;9.054;2022-09-03T07:58:18;3.10;;;2.80;;
2396;SDS011;1209;48.410;9.054;2022-09-03T08:00:46;5.00;;;3.67;;
2396;SDS011;1209;48.410;9.054;2022-09-03T08:03:13;3.10;;;2.80;;
2396;SDS011;1209;48.410;9.054;2022-09-03T08:05:38;3.50;;;3.00;;
2396;SDS011;1209;48.410;9.054;2022-09-03T08:08:04;3.20;;;3.00;;
2396;SDS011;1209;48.410;9.054;2022-09-03T08:10:33;2.60;;;2.40;;
2396;SDS011;1209;48.410;9.054;2022-09-03T08:13:00;4.77;;;3.17;;
2396;SDS011;1209;48.410;9.054;2022-09-03T08:15:29;3.57;;;3.23;;
2396;SDS011;1209;48.410;9.054;2022-09-03T08:17:54;3.30;;;3.00;;
2396;SDS011;1209;48.410;9.054;2022-09-03T08:20:19;6.63;;;3.60;;
2396;SDS011;1209;48.410;9.054;2022-09-03T08:22:45;3.30;;;2.93;;
2396;SDS011;1209;48.410;9.054;2022-09-03T08:25:10;3.23;;;2.97;;
2396;SDS011;1209;48.410;9.054;2022-09-03T08:27:36;3.00;;;2.80;;
2396;SDS011;1209;48.410;9.054;2022-09-03T08:30:01;2.77;;;2.50;;
2396;SDS011;1209;48.410;9.054;2022-09-03T08:32:28;2.70;;;2.23;;
2396;SDS011;1209;48.410;9.054;2022-09-03T08:34:53;2.00;;;1.90;;
2396;SDS011;1209;48.410;9.054;2022-09-03T08:37:18;1.90;;;1.80;;
2396;SDS011;1209;48.410;9.054;2022-09-03T08:39:44;1.33;;;1.30;;
2396;SDS011;1209;48.410;9.054;2022-09-03T08:42:17;1.70;;;1.60;;
2396;SDS011;1209;48.410;9.054;2022-09-03T08:44:51;1.33;;;1.27;;
2396;SDS011;1209;48.410;9.054;2022-09-03T08:47:34;1.50;;;1.40;;
2396;SDS011;1209;48.410;9.054;2022-09-03T08:52:56;1.87;;;1.77;;
2396;SDS011;1209;48.410;9.054;2022-09-03T08:55:33;1.60;;;1.50;;
2396;SDS011;1209;48.410;9.054;2022-09-03T08:58:19;1.33;;;1.23;;
2396;SDS011;1209;48.410;9.054;2022-09-03T09:00:51;1.50;;;1.40;;
2396;SDS011;1209;48.410;9.054;2022-09-03T09:05:53;1.37;;;1.27;;
2396;SDS011;1209;48.410;9.054;2022-09-03T09:08:53;1.80;;;1.20;;
2396;SDS011;1209;48.410;9.054;2022-09-03T09:16:57;1.70;;;1.60;;
2396;SDS011;1209;48.410;9.054;2022-09-03T09:22:48;1.50;;;1.40;;
2396;SDS011;1209;48.410;9.054;2022-09-03T09:25:20;3.80;;;2.10;;
2396;SDS011;1209;48.410;9.054;2022-09-03T09:27:53;2.20;;;2.00;;
2396;SDS011;1209;48.410;9.054;2022-09-03T09:30:25;1.73;;;1.63;;
2396;SDS011;1209;48.410;9.054;2022-09-03T09:32:51;1.40;;;1.37;;
2396;SDS011;1209;48.410;9.054;2022-09-03T09:35:17;1.73;;;1.33;;
2396;SDS011;1209;48.410;9.054;2022-09-03T09:37:56;1.50;;;1.40;;
2396;SDS011;1209;48.410;9.054;2022-09-03T09:43:03;1.20;;;1.20;;
2396;SDS011;1209;48.410;9.054;2022-09-03T09:45:39;2.70;;;1.33;;
2396;SDS011;1209;48.410;9.054;2022-09-03T09:48:08;1.70;;;1.60;;
2396;SDS011;1209;48.410;9.054;2022-09-03T09:50:39;2.23;;;1.30;;
2396;SDS011;1209;48.410;9.054;2022-09-03T09:53:08;1.87;;;1.73;;
2396;SDS011;1209;48.410;9.054;2022-09-03T09:55:48;1.93;;;1.77;;
2396;SDS011;1209;48.410;9.054;2022-09-03T09:58:19;2.13;;;1.93;;
2396;SDS011;1209;48.410;9.054;2022-09-03T10:01:01;2.17;;;1.77;;
2396;SDS011;1209;48.410;9.054;2022-09-03T10:03:55;1.63;;;1.53;;
2396;SDS011;1209;48.410;9.054;2022-09-03T10:06:25;1.43;;;1.30;;
2396;SDS011;1209;48.410;9.054;2022-09-03T10:09:12;2.00;;;1.90;;
2396;SDS011;1209;48.410;9.054;2022-09-03T10:11:41;2.40;;;1.90;;
2396;SDS011;1209;48.410;9.054;2022-09-03T10:14:12;2.43;;;2.13;;
2396;SDS011;1209;48.410;9.054;2022-09-03T10:16:44;2.40;;;2.27;;
2396;SDS011;1209;48.410;9.054;2022-09-03T10:19:18;2.00;;;1.90;;
2396;SDS011;1209;48.410;9.054;2022-09-03T10:22:04;1.70;;;1.60;;
2396;SDS011;1209;48.410;9.054;2022-09-03T10:27:03;1.83;;;1.73;;
2396;SDS011;1209;48.410;9.054;2022-09-03T10:29:34;2.00;;;1.80;;
2396;SDS011;1209;48.410;9.054;2022-09-03T10:32:25;2.47;;;2.27;;
2396;SDS011;1209;48.410;9.054;2022-09-03T10:35:03;2.27;;;2.07;;
2396;SDS011;1209;48.410;9.054;2022-09-03T10:37:39;2.67;;;2.47;;
2396;SDS011;1209;48.410;9.054;2022-09-03T10:40:10;2.10;;;2.00;;
2396;SDS011;1209;48.410;9.054;2022-09-03T10:48:12;2.07;;;1.90;;
2396;SDS011;1209;48.410;9.054;2022-09-03T10:50:48;4.07;;;2.27;;
2396;SDS011;1209;48.410;9.054;2022-09-03T10:56:19;3.40;;;3.07;;
2396;SDS011;1209;48.410;9.054;2022-09-03T11:01:31;2.47;;;2.27;;
2396;SDS011;1209;48.410;9.054;2022-09-03T11:04:41;6.60;;;5.33;;
2396;SDS011;1209;48.410;9.054;2022-09-03T11:07:09;8.13;;;3.60;;
2396;SDS011;1209;48.410;9.054;2022-09-03T11:09:38;6.47;;;2.97;;
2396;SDS011;1209;48.410;9.054;2022-09-03T11:12:12;3.40;;;2.47;;
2396;SDS011;1209;48.410;9.054;2022-09-03T11:14:56;3.50;;;3.20;;
2396;SDS011;1209;48.410;9.054;2022-09-03T11:17:31;3.13;;;2.87;;
2396;SDS011;1209;48.410;9.054;2022-09-03T11:22:51;3.53;;;2.80;;
2396;SDS011;1209;48.410;9.054;2022-09-03T11:25:20;6.90;;;2.80;;
2396;SDS011;1209;48.410;9.054;2022-09-03T11:27:52;2.50;;;2.20;;
2396;SDS011;1209;48.410;9.054;2022-09-03T11:30:48;1.40;;;1.30;;
2396;SDS011;1209;48.410;9.054;2022-09-03T11:33:16;1.30;;;1.20;;
2396;SDS011;1209;48.410;9.054;2022-09-03T11:35:45;1.70;;;1.60;;
2396;SDS011;1209;48.410;9.054;2022-09-03T11:40:39;1.83;;;1.00;;
2396;SDS011;1209;48.410;9.054;2022-09-03T11:48:52;0.40;;;0.40;;
2396;SDS011;1209;48.410;9.054;2022-09-03T11:51:35;0.90;;;0.90;;
2396;SDS011;1209;48.410;9.054;2022-09-03T11:54:30;0.50;;;0.50;;
2396;SDS011;1209;48.410;9.054;2022-09-03T11:59:37;0.67;;;0.67;;
2396;SDS011;1209;48.410;9.054;2022-09-03T12:04:52;1.47;;;0.57;;
2396;SDS011;1209;48.410;9.054;2022-09-03T12:13:04;0.60;;;0.60;;
2396;SDS011;1209;48.410;9.054;2022-09-03T12:16:12;0.50;;;0.50;;
2396;SDS011;1209;48.410;9.054;2022-09-03T12:18:40;0.73;;;0.60;;
2396;SDS011;1209;48.410;9.054;2022-09-03T12:21:06;1.70;;;0.90;;
2396;SDS011;1209;48.410;9.054;2022-09-03T12:23:34;2.77;;;2.43;;
2396;SDS011;1209;48.410;9.054;2022-09-03T12:26:13;2.07;;;1.57;;
2396;SDS011;1209;48.410;9.054;2022-09-03T12:28:41;1.93;;;0.80;;
2396;SDS011;1209;48.410;9.054;2022-09-03T12:31:13;0.60;;;0.60;;
2396;SDS011;1209;48.410;9.054;2022-09-03T12:33:53;0.90;;;0.90;;
2396;SDS011;1209;48.410;9.054;2022-09-03T12:36:22;1.13;;;0.80;;
2396;SDS011;1209;48.410;9.054;2022-09-03T12:38:48;0.60;;;0.60;;
2396;SDS011;1209;48.410;9.054;2022-09-03T12:41:20;1.10;;;0.80;;
2396;SDS011;1209;48.410;9.054;2022-09-03T12:43:55;0.87;;;0.87;;
2396;SDS011;1209;48.410;9.054;2022-09-03T12:46:23;4.23;;;0.87;;
2396;SDS011;1209;48.410;9.054;2022-09-03T12:51:19;0.53;;;0.53;;
2396;SDS011;1209;48.410;9.054;2022-09-03T12:53:45;1.90;;;0.83;;
2396;SDS011;1209;48.410;9.054;2022-09-03T12:56:12;1.57;;;0.70;;
2396;SDS011;1209;48.410;9.054;2022-09-03T12:58:46;0.80;;;0.80;;
2396;SDS011;1209;48.410;9.054;2022-09-03T13:01:15;1.00;;;0.80;;
2396;SDS011;1209;48.410;9.054;2022-09-03T13:03:49;0.77;;;0.77;;
2396;SDS011;1209;48.410;9.054;2022-09-03T13:07:22;1.40;;;0.80;;
2396;SDS011;1209;48.410;9.054;2022-09-03T13:09:32;1.47;;;1.33;;
2396;SDS011;1209;48.410;9.054;2022-09-03T13:12:02;1.13;;;1.13;;
2396;SDS011;1209;48.410;9.054;2022-09-03T13:14:43;1.50;;;1.40;;
2396;SDS011;1209;48.410;9.054;2022-09-03T13:23:04;0.77;;;0.77;;
2396;SDS011;1209;48.410;9.054;2022-09-03T13:30:56;0.53;;;0.53;;
2396;SDS011;1209;48.410;9.054;2022-09-03T13:33:41;0.70;;;0.70;;
2396;SDS011;1209;48.410;9.054;2022-09-03T13:36:15;0.50;;;0.50;;
2396;SDS011;1209;48.410;9.054;2022-09-03T13:38:59;0.90;;;0.60;;
2396;SDS011;1209;48.410;9.054;2022-09-03T13:44:13;0.70;;;0.70;;
2396;SDS011;1209;48.410;9.054;2022-09-03T13:46:51;0.77;;;0.77;;
2396;SDS011;1209;48.410;9.054;2022-09-03T13:52:19;0.73;;;0.73;;
2396;SDS011;1209;48.410;9.054;2022-09-03T13:54:51;0.80;;;0.80;;
2396;SDS011;1209;48.410;9.054;2022-09-03T14:00:05;0.93;;;0.90;;
2396;SDS011;1209;48.410;9.054;2022-09-03T14:05:12;0.80;;;0.80;;
2396;SDS011;1209;48.410;9.054;2022-09-03T14:07:50;0.70;;;0.70;;
2396;SDS011;1209;48.410;9.054;2022-09-03T14:10:23;0.70;;;0.70;;
2396;SDS011;1209;48.410;9.054;2022-09-03T14:15:56;0.70;;;0.70;;
2396;SDS011;1209;48.410;9.054;2022-09-03T14:18:34;0.70;;;0.70;;
2396;SDS011;1209;48.410;9.054;2022-09-03T14:26:27;0.70;;;0.70;;
2396;SDS011;1209;48.410;9.054;2022-09-03T14:28:59;0.70;;;0.70;;
2396;SDS011;1209;48.410;9.054;2022-09-03T14:31:34;0.70;;;0.70;;
2396;SDS011;1209;48.410;9.054;2022-09-03T14:34:21;0.80;;;0.77;;
2396;SDS011;1209;48.410;9.054;2022-09-03T14:40:04;0.77;;;0.77;;
2396;SDS011;1209;48.410;9.054;2022-09-03T14:45:56;0.60;;;0.60;;
2396;SDS011;1209;48.410;9.054;2022-09-03T15:12:56;1.50;;;1.40;;
2396;SDS011;1209;48.410;9.054;2022-09-03T15:15:33;1.07;;;1.00;;
2396;SDS011;1209;48.410;9.054;2022-09-03T15:18:16;1.00;;;1.00;;
2396;SDS011;1209;48.410;9.054;2022-09-03T15:26:09;0.93;;;0.93;;
2396;SDS011;1209;48.410;9.054;2022-09-03T15:34:14;1.17;;;1.17;;
2396;SDS011;1209;48.410;9.054;2022-09-03T15:36:56;1.10;;;1.00;;
2396;SDS011;1209;48.410;9.054;2022-09-03T15:39:29;0.90;;;0.90;;
2396;SDS011;1209;48.410;9.054;2022-09-03T15:45:00;1.33;;;1.20;;
2396;SDS011;1209;48.410;9.054;2022-09-03T15:52:58;1.20;;;1.10;;
2396;SDS011;1209;48.410;9.054;2022-09-03T15:55:39;0.80;;;0.80;;
2396;SDS011;1209;48.410;9.054;2022-09-03T16:09:19;2.40;;;0.93;;
2396;SDS011;1209;48.410;9.054;2022-09-03T16:18:22;0.70;;;0.70;;
2396;SDS011;1209;48.410;9.054;2022-09-03T16:20:51;1.27;;;1.17;;
2396;SDS011;1209;48.410;9.054;2022-09-03T16:26:00;1.00;;;1.00;;
2396;SDS011;1209;48.410;9.054;2022-09-03T16:28:43;1.13;;;1.03;;
2396;SDS011;1209;48.410;9.054;2022-09-03T16:34:34;2.23;;;1.27;;
2396;SDS011;1209;48.410;9.054;2022-09-03T16:51:31;1.13;;;1.13;;
2396;SDS011;1209;48.410;9.054;2022-09-03T16:54:20;1.40;;;1.20;;
2396;SDS011;1209;48.410;9.054;2022-09-03T16:57:10;1.90;;;1.80;;
2396;SDS011;1209;48.410;9.054;2022-09-03T17:05:31;1.40;;;1.30;;
2396;SDS011;1209;48.410;9.054;2022-09-03T17:08:18;1.10;;;1.00;;
2396;SDS011;1209;48.410;9.054;2022-09-03T17:16:48;1.07;;;1.00;;
2396;SDS011;1209;48.410;9.054;2022-09-03T17:25:00;0.73;;;0.73;;
2396;SDS011;1209;48.410;9.054;2022-09-03T17:36:08;1.70;;;1.10;;
2396;SDS011;1209;48.410;9.054;2022-09-03T17:41:48;1.27;;;1.17;;
2396;SDS011;1209;48.410;9.054;2022-09-03T17:50:11;1.40;;;1.30;;
2396;SDS011;1209;48.410;9.054;2022-09-03T17:52:44;2.47;;;1.53;;
2396;SDS011;1209;48.410;9.054;2022-09-03T17:55:12;2.97;;;1.87;;
2396;SDS011;1209;48.410;9.054;2022-09-03T17:58:02;2.93;;;1.40;;
2396;SDS011;1209;48.410;9.054;2022-09-03T18:00:41;7.80;;;3.50;;
2396;SDS011;1209;48.410;9.054;2022-09-03T18:03:17;2.67;;;2.30;;
2396;SDS011;1209;48.410;9.054;2022-09-03T18:05:59;3.90;;;3.23;;
2396;SDS011;1209;48.410;9.054;2022-09-03T18:11:19;11.27;;;2.40;;
2396;SDS011;1209;48.410;9.054;2022-09-03T18:16:44;1.87;;;1.67;;
2396;SDS011;1209;48.410;9.054;2022-09-03T18:19:20;3.93;;;2.33;;
2396;SDS011;1209;48.410;9.054;2022-09-03T18:21:55;3.80;;;2.10;;
2396;SDS011;1209;48.410;9.054;2022-09-03T18:24:43;2.30;;;2.10;;
2396;SDS011;1209;48.410;9.054;2022-09-03T18:27:53;1.53;;;1.40;;
2396;SDS011;1209;48.410;9.054;2022-09-03T18:30:41;1.90;;;1.80;;
2396;SDS011;1209;48.410;9.054;2022-09-03T18:33:25;1.47;;;1.37;;
2396;SDS011;1209;48.410;9.054;2022-09-03T18:36:10;1.50;;;1.40;;
2396;SDS011;1209;48.410;9.054;2022-09-03T18:39:02;1.60;;;1.50;;
2396;SDS011;1209;48.410;9.054;2022-09-03T18:42:04;1.40;;;1.30;;
2396;SDS011;1209;48.410;9.054;2022-09-03T18:45:25;1.70;;;1.60;;
2396;SDS011;1209;48.410;9.054;2022-09-03T18:51:26;1.30;;;1.20;;
2396;SDS011;1209;48.410;9.054;2022-09-03T18:54:46;1.27;;;1.17;;
2396;SDS011;1209;48.410;9.054;2022-09-03T18:57:53;3.13;;;1.70;;
2396;SDS011;1209;48.410;9.054;2022-09-03T19:01:06;1.63;;;1.53;;
2396;SDS011;1209;48.410;9.054;2022-09-03T19:07:19;2.10;;;1.50;;
2396;SDS011;1209;48.410;9.054;2022-09-03T19:10:54;1.83;;;1.67;;
2396;SDS011;1209;48.410;9.054;2022-09-03T19:13:48;1.87;;;1.70;;
2396;SDS011;1209;48.410;9.054;2022-09-03T19:19:54;1.50;;;1.40;;
2396;SDS011;1209;48.410;9.054;2022-09-03T19:22:45;1.20;;;1.20;;
2396;SDS011;1209;48.410;9.054;2022-09-03T19:25:29;1.70;;;1.60;;
2396;SDS011;1209;48.410;9.054;2022-09-03T19:28:18;2.87;;;1.47;;
2396;SDS011;1209;48.410;9.054;2022-09-03T19:34:16;1.67;;;1.57;;
2396;SDS011;1209;48.410;9.054;2022-09-03T19:37:17;2.00;;;1.80;;
2396;SDS011;1209;48.410;9.054;2022-09-03T19:46:41;1.40;;;1.30;;
2396;SDS011;1209;48.410;9.054;2022-09-03T19:52:57;1.50;;;1.40;;
2396;SDS011;1209;48.410;9.054;2022-09-03T19:55:45;1.80;;;1.70;;
2396;SDS011;1209;48.410;9.054;2022-09-03T19:58:31;1.67;;;1.47;;
2396;SDS011;1209;48.410;9.054;2022-09-03T20:01:18;1.83;;;1.70;;
2396;SDS011;1209;48.410;9.054;2022-09-03T20:04:06;1.87;;;1.77;;
2396;SDS011;1209;48.410;9.054;2022-09-03T20:06:55;2.17;;;2.00;;
2396;SDS011;1209;48.410;9.054;2022-09-03T20:09:41;1.80;;;1.70;;
2396;SDS011;1209;48.410;9.054;2022-09-03T20:12:26;2.30;;;2.10;;
2396;SDS011;1209;48.410;9.054;2022-09-03T20:14:56;2.40;;;2.20;;
2396;SDS011;1209;48.410;9.054;2022-09-03T20:17:25;4.00;;;1.97;;
2396;SDS011;1209;48.410;9.054;2022-09-03T20:22:55;1.70;;;1.60;;
2396;SDS011;1209;48.410;9.054;2022-09-03T20:36:08;4.30;;;1.60;;
2396;SDS011;1209;48.410;9.054;2022-09-03T20:39:13;1.90;;;1.50;;
2396;SDS011;1209;48.410;9.054;2022-09-03T20:45:01;1.60;;;1.50;;
2396;SDS011;1209;48.410;9.054;2022-09-03T20:55:40;2.13;;;1.70;;
2396;SDS011;1209;48.410;9.054;2022-09-03T21:14:57;1.57;;;1.47;;
2396;SDS011;1209;48.410;9.054;2022-09-03T21:23:23;1.33;;;1.30;;
2396;SDS011;1209;48.410;9.054;2022-09-03T21:25:57;1.90;;;1.80;;
2396;SDS011;1209;48.410;9.054;2022-09-03T21:28:38;2.57;;;2.00;;
2396;SDS011;1209;48.410;9.054;2022-09-03T21:31:14;1.87;;;1.77;;